Flight Track Log - Related Links

Times and Time Zones

All times are in EDT time to prevent confusion due to time zone crossing. See the JAL405 flight status page for this flight to view local times or setup timezone preferences in your user account.

Time Position Orientation Groundspeed Altitude Reporting Facility
EDT Latitude Longitude Course Direction KTS MPH feet Rate Location/Type
Wed 11:00:57 PM 35.7310 140.4000 149° Southeast 210 242 1,800  Level FlightAware ADS-B
Wed 11:01:22 PM 35.7100 140.4150 150° Southeast 228 262 2,700 1,950 Climbing FlightAware ADS-B
Wed 11:01:37 PM 35.6970 140.4250 148° Southeast 235 270 3,100 1,800 Climbing FlightAware ADS-B
Wed 11:02:02 PM 35.6730 140.4420 150° Southeast 249 287 3,900 1,650 Climbing FlightAware ADS-B
Wed 11:02:17 PM 35.6560 140.4540 150° Southeast 273 314 4,200 1,733 Climbing FlightAware ADS-B
Wed 11:02:47 PM 35.6240 140.4770 150° Southeast 292 336 5,200 2,400 Climbing FlightAware ADS-B
Wed 11:03:12 PM 35.5920 140.5000 150° Southeast 294 338 6,400 2,073 Climbing FlightAware ADS-B
Wed 11:03:42 PM 35.5600 140.5230 150° Southeast 295 339 7,100 1,067 Climbing FlightAware ADS-B
Wed 11:03:57 PM 35.5390 140.5300 165° South 286 329 7,200 200 Climbing FlightAware ADS-B
Wed 11:04:12 PM 35.5220 140.5270 188° South 275 316 7,200  Level FlightAware ADS-B
Wed 11:04:37 PM 35.4980 140.4980 225° Southwest 268 308 7,200  Level FlightAware ADS-B
Wed 11:04:52 PM 35.4950 140.4780 260° West 263 303 7,200  Level FlightAware ADS-B
Wed 11:05:07 PM 35.4990 140.4550 282° West 259 298 7,200  Level FlightAware ADS-B
Wed 11:05:22 PM 35.5100 140.4380 308° West 263 303 7,200  Level FlightAware ADS-B
Wed 11:05:32 PM 35.5200 140.4290 324° Northwest 269 310 7,200  Level FlightAware ADS-B
Wed 11:06:02 PM 35.5530 140.4080 333° Northwest 267 307 7,200  Level FlightAware ADS-B
Wed 11:06:32 PM 35.5860 140.3870 333° Northwest 265 305 7,200 218 Level FlightAware ADS-B
Wed 11:06:57 PM 35.6110 140.3720 334° Northwest 270 311 7,400 1,800 Climbing FlightAware ADS-B
Wed 11:07:22 PM 35.6420 140.3530 334° Northwest 272 313 8,700 2,618 Climbing FlightAware ADS-B
Wed 11:07:52 PM 35.6750 140.3320 333° Northwest 281 323 9,800 1,200 Climbing FlightAware ADS-B
Wed 11:08:37 PM 35.7310 140.2960 332° Northwest 294 338 10,200 282 Climbing FlightAware ADS-B
Wed 11:09:17 PM 35.7760 140.2680 333° Northwest 293 337 10,200  Level FlightAware ADS-B
Wed 11:10:02 PM 35.8360 140.2440 342° North 298 343 10,200  Level FlightAware ADS-B
Wed 11:10:42 PM 35.8890 140.2260 345° North 288 331 10,200  Level FlightAware ADS-B
Wed 11:11:22 PM 35.9420 140.2070 344° North 283 326 10,200  Level FlightAware ADS-B
Wed 11:12:07 PM 35.9990 140.1870 344° North 286 329 10,200  Level FlightAware ADS-B
Wed 11:12:47 PM 36.0490 140.1650 340° North 275 316 10,200  Level FlightAware ADS-B
Wed 11:13:02 PM 36.0630 140.1490 317° Northwest 266 306 10,200  Level FlightAware ADS-B
Wed 11:13:47 PM 36.1010 140.0980 313° West 269 310 10,200 212 Level FlightAware ADS-B
Wed 11:14:27 PM 36.1340 140.0520 312° West 278 320 10,500 900 Climbing FlightAware ADS-B
Wed 11:15:07 PM 36.1720 139.9990 312° West 321 369 11,400 1,275 Climbing FlightAware ADS-B
Wed 11:15:47 PM 36.2120 139.9450 313° West 356 410 12,200 2,025 Climbing FlightAware ADS-B
Wed 11:16:27 PM 36.2610 139.8780 312° West 365 420 14,100 2,600 Climbing FlightAware ADS-B
Wed 11:17:17 PM 36.3170 139.8010 312° West 367 422 16,100 2,400 Climbing FlightAware ADS-B
Wed 11:17:57 PM 36.3620 139.7390 312° West 372 428 17,700 2,325 Climbing FlightAware ADS-B
Wed 11:18:37 PM 36.4250 139.6870 326° Northwest 396 456 19,200 2,025 Climbing FlightAware ADS-B
Wed 11:19:17 PM 36.4950 139.6610 343° North 405 466 20,400 1,765 Climbing FlightAware ADS-B
Wed 11:20:02 PM 36.5690 139.6340 344° North 423 487 21,700 1,800 Climbing FlightAware ADS-B
Wed 11:20:37 PM 36.6450 139.6060 344° North 429 494 22,800 918 Climbing FlightAware ADS-B
Wed 11:21:27 PM 36.7290 139.5750 344° North 429 494 23,000 333 Climbing FlightAware ADS-B
Wed 11:22:07 PM 36.8110 139.5450 344° North 435 501 23,300 1,129 Climbing FlightAware ADS-B
Wed 11:22:52 PM 36.9040 139.5110 344° North 444 511 24,600 1,600 Climbing FlightAware ADS-B
Wed 11:23:22 PM 36.9590 139.4900 343° North 449 517 25,300 884 Climbing FlightAware ADS-B
Wed 11:24:27 PM 37.0930 139.4410 344° North 451 519 26,000 382 Climbing FlightAware ADS-B
Wed 11:25:12 PM 37.1840 139.4070 343° North 456 525 26,000  Level FlightAware ADS-B
Wed 11:25:47 PM 37.2560 139.3800 343° North 453 521 26,000 847 Level FlightAware ADS-B
Wed 11:26:37 PM 37.3550 139.3320 339° North 449 517 27,200 1,400 Climbing FlightAware ADS-B
Wed 11:27:17 PM 37.4270 139.2800 330° Northwest 454 522 28,100 1,350 Climbing FlightAware ADS-B
Wed 11:27:57 PM 37.4970 139.2250 328° Northwest 460 529 29,000 1,360 Climbing FlightAware ADS-B
Wed 11:28:32 PM 37.5650 139.1710 328° Northwest 456 525 29,800 1,320 Climbing FlightAware ADS-B
Wed 11:29:37 PM 37.6810 139.0810 328° Northwest 455 524 31,200 1,257 Climbing FlightAware ADS-B
Wed 11:30:17 PM 37.7530 139.0240 328° Northwest 454 522 32,000 565 Climbing FlightAware ADS-B
Wed 11:31:02 PM 37.8310 138.9620 328° Northwest 459 528 32,000  Level FlightAware ADS-B
Wed 11:31:42 PM 37.9010 138.9070 328° Northwest 455 524 32,000  Level FlightAware ADS-B
Wed 11:32:22 PM 37.9750 138.8490 328° Northwest 456 525 32,000  Level FlightAware ADS-B
Wed 11:33:07 PM 38.0600 138.7820 328° Northwest 454 522 32,000  Level FlightAware ADS-B
Wed 11:33:47 PM 38.1360 138.7380 336° Northwest 474 545 32,000  Level FlightAware ADS-B
Wed 11:34:27 PM 38.2210 138.7220 352° North 485 558 32,000  Level FlightAware ADS-B
Wed 11:35:02 PM 38.3020 138.7160 357° North 496 571 32,000  Level FlightAware ADS-B
Wed 11:35:57 PM 38.4250 138.7060 356° North 488 562 32,000  Level FlightAware ADS-B
Wed 11:36:27 PM 38.4960 138.6800 344° North 478 550 32,000  Level FlightAware ADS-B
Wed 11:37:17 PM 38.6040 138.6240 338° Northwest 470 541 32,000  Level FlightAware ADS-B
Wed 11:38:02 PM 38.6940 138.5770 338° Northwest 470 541 32,000  Level FlightAware ADS-B
Wed 11:38:42 PM 38.7740 138.5360 338° Northwest 468 539 32,000  Level FlightAware ADS-B
Wed 11:39:22 PM 38.8610 138.4910 338° Northwest 467 537 32,000  Level FlightAware ADS-B
Wed 11:39:57 PM 38.9280 138.4550 337° Northwest 474 545 32,000  Level FlightAware ADS-B
Wed 11:40:47 PM 39.0290 138.3990 337° Northwest 474 545 32,000  Level FlightAware ADS-B
Wed 11:41:32 PM 39.1190 138.3490 337° Northwest 472 543 32,000  Level FlightAware ADS-B
Wed 11:42:12 PM 39.1990 138.3040 336° Northwest 472 543 32,000  Level FlightAware ADS-B
Wed 11:42:52 PM 39.2780 138.2590 336° Northwest 474 545 32,000  Level FlightAware ADS-B
Wed 11:43:37 PM 39.3750 138.2170 341° North 476 548 32,000  Level FlightAware ADS-B
Wed 11:44:22 PM 39.4740 138.2110 357° North 481 554 32,000  Level FlightAware ADS-B
Wed 11:45:57 PM 39.6880 138.2140 North 482 555 32,000  Level FlightAware ADS-B
Wed 11:46:37 PM 39.7790 138.2140 360° North 483 556 32,000  Level FlightAware ADS-B
Wed 11:49:00 PM 40.0396 138.0367 332° Northwest  Level Estimated
Wed 11:49:27 PM 40.1550 138.2170 332° Northwest 484 557 32,000  Level FlightAware ADS-B
Wed 11:50:22 PM 40.2850 138.2180 360° North 483 556 32,000  Level FlightAware ADS-B
Wed 11:51:07 PM 40.3900 138.2190 360° North 481 554 32,000  Level FlightAware ADS-B
Wed 11:51:47 PM 40.4810 138.2200 360° North 480 552 32,000  Level FlightAware ADS-B
Wed 11:52:27 PM 40.5700 138.2210 360° North 481 554 32,000  Level FlightAware ADS-B
Wed 11:53:12 PM 40.6680 138.2210 360° North 482 555 32,000  Level FlightAware ADS-B
Wed 11:53:52 PM 40.7670 138.2220 360° North 483 556 32,000  Level FlightAware ADS-B
Wed 11:54:37 PM 40.8600 138.2230 360° North 483 556 32,000  Level FlightAware ADS-B
Wed 11:55:32 PM 40.9890 138.2240 360° North 485 558 32,000  Level FlightAware ADS-B
Wed 11:56:12 PM 41.0790 138.2250 360° North 485 558 32,000  Level FlightAware ADS-B
Wed 11:56:52 PM 41.1670 138.2250 360° North 485 558 32,000  Level FlightAware ADS-B
Wed 11:57:37 PM 41.2750 138.2260 360° North 486 559 32,000  Level FlightAware ADS-B
Wed 11:58:17 PM 41.3720 138.2270 360° North 486 559 32,000  Level FlightAware ADS-B
Wed 11:59:02 PM 41.4660 138.2280 360° North 486 559 32,000  Level FlightAware ADS-B
Wed 11:59:27 PM 41.5200 138.2280 360° North 483 556 32,000  Level FlightAware ADS-B
Thu 12:00:12 AM 41.6230 138.2290 360° North 481 554 32,000  Level FlightAware ADS-B
Thu 12:00:52 AM 41.7150 138.2300 360° North 479 551 32,000  Level FlightAware ADS-B
Thu 12:01:37 AM 41.8190 138.2310 360° North 479 551 32,000  Level FlightAware ADS-B
Thu 12:02:17 AM 41.8990 138.2320 North 479 551 32,000  Level FlightAware ADS-B
Thu 12:02:57 AM 42.0010 138.2330 360° North 486 559 32,000  Level FlightAware ADS-B
Thu 12:03:37 AM 42.0910 138.2330 360° North 485 558 32,000  Level FlightAware ADS-B
Thu 12:04:47 AM 42.2420 138.2350 North 482 555 32,000  Level FlightAware ADS-B
Thu 12:05:22 AM 42.3170 138.2350 360° North 481 554 32,000  Level FlightAware ADS-B
Thu 12:06:17 AM 42.4450 138.2360 360° North 480 552 32,000  Level FlightAware ADS-B
Thu 12:06:57 AM 42.5370 138.2370 360° North 479 551 32,000  Level FlightAware ADS-B
Thu 12:07:32 AM 42.6110 138.2380 North 470 541 32,000  Level FlightAware ADS-B
Thu 12:08:17 AM 42.6960 138.2400 North 470 541 32,000  Level FlightAware ADS-B
Thu 12:09:02 AM 42.7690 138.2420 North 470 541 32,000  Level FlightAware ADS-B
Thu 12:09:47 AM 42.8620 138.2440 North 470 541 32,000  Level FlightAware ADS-B
Thu 12:10:27 AM 42.9360 138.2450 North 470 541 32,000  Level FlightAware ADS-B
Thu 12:11:07 AM 43.0100 138.2470 North 470 541 32,000  Level FlightAware ADS-B
Thu 12:11:47 AM 43.0840 138.2490 North 470 541 32,000  Level FlightAware ADS-B
Thu 12:12:27 AM 43.1580 138.2510 North 470 541 32,000  Level FlightAware ADS-B
Thu 12:13:17 AM 43.2500 138.2530 North 470 541 32,000  Level FlightAware ADS-B
Thu 12:13:57 AM 43.3240 138.2550 North 470 541 32,000  Level FlightAware ADS-B
Thu 12:14:37 AM 43.3980 138.2560 North 470 541 32,000  Level FlightAware ADS-B
Thu 12:15:17 AM 43.4720 138.2580 North 470 541 32,000  Level FlightAware ADS-B
Thu 12:15:57 AM 43.5460 138.2600 North 470 541 32,000  Level FlightAware ADS-B
Thu 12:16:47 AM 43.6380 138.2620 North 470 541 32,000  Level FlightAware ADS-B
Thu 12:17:27 AM 43.7120 138.2640 North 470 541 32,000  Level FlightAware ADS-B
Thu 12:20:00 AM 43.9909 138.0598 332° Northwest  Level Estimated
Thu 12:21:00 AM 44.1002 137.9792 332° Northwest  Level Estimated
Thu 12:22:00 AM 44.2094 137.8983 332° Northwest  Level Estimated
Thu 12:23:00 AM 44.3186 137.8171 332° Northwest  Level Estimated
Thu 12:24:00 AM 44.4277 137.7356 332° Northwest  Level Estimated
Thu 12:25:00 AM 44.5368 137.6538 332° Northwest  Level Estimated
Thu 12:26:00 AM 44.6457 137.5717 332° Northwest  Level Estimated
Thu 12:27:00 AM 44.7547 137.4893 332° Northwest  Level Estimated
Thu 12:28:00 AM 44.8635 137.4065 332° Northwest  Level Estimated
Thu 12:29:00 AM 44.9724 137.3235 332° Northwest  Level Estimated
Thu 12:30:00 AM 45.0811 137.2401 332° Northwest  Level Estimated
Thu 12:31:00 AM 45.1898 137.1564 332° Northwest  Level Estimated
Thu 12:32:00 AM 45.2984 137.0724 331° Northwest  Level Estimated
Thu 12:33:00 AM 45.4070 136.9881 331° Northwest  Level Estimated
Thu 12:34:00 AM 45.5155 136.9035 331° Northwest  Level Estimated
Thu 12:35:00 AM 45.6240 136.8185 331° Northwest  Level Estimated
Thu 12:35:27 AM 46.3040 138.0830 331° Northwest 488 562 32,000  Level FlightAware ADS-B
Thu 12:36:07 AM 46.3910 138.0770 357° North 489 563 32,000  Level FlightAware ADS-B
Thu 12:36:47 AM 46.4800 138.0700 357° North 491 565 32,000  Level FlightAware ADS-B
Thu 12:37:27 AM 46.5680 138.0440 349° North 499 574 32,000  Level FlightAware ADS-B
Thu 12:38:17 AM 46.6830 137.9900 342° North 501 577 32,000  Level FlightAware ADS-B
Thu 12:38:57 AM 46.7690 137.9470 341° North 502 578 32,000  Level FlightAware ADS-B
Thu 12:39:32 AM 46.8450 137.9100 342° North 503 579 32,000  Level FlightAware ADS-B
Thu 12:40:37 AM 46.9860 137.8410 342° North 505 581 32,000  Level FlightAware ADS-B
Thu 12:41:17 AM 47.0810 137.7940 341° North 505 581 32,000  Level FlightAware ADS-B
Thu 12:41:57 AM 47.1680 137.7510 341° North 505 581 32,000  Level FlightAware ADS-B
Thu 12:42:37 AM 47.2710 137.7000 341° North 504 580 32,000  Level FlightAware ADS-B
Thu 12:43:22 AM 47.3620 137.6550 341° North 504 580 32,000  Level FlightAware ADS-B
Thu 12:44:07 AM 47.4620 137.6050 341° North 504 580 32,000  Level FlightAware ADS-B
Thu 12:45:02 AM 47.5810 137.5450 341° North 504 580 32,000  Level FlightAware ADS-B
Thu 12:45:42 AM 47.6680 137.5010 341° North 505 581 32,000  Level FlightAware ADS-B
Thu 12:46:27 AM 47.7710 137.4490 341° North 504 580 32,000  Level FlightAware ADS-B
Thu 12:47:02 AM 47.8460 137.4110 341° North 504 580 32,000  Level FlightAware ADS-B
Thu 12:47:37 AM 47.9200 137.3730 341° North 503 579 32,000  Level FlightAware ADS-B
Thu 12:48:27 AM 48.0250 137.3200 341° North 503 579 32,000  Level FlightAware ADS-B
Thu 12:49:12 AM 48.1280 137.2660 341° North 504 580 32,000  Level FlightAware ADS-B
Thu 12:49:52 AM 48.2280 137.2150 341° North 505 581 32,000  Level FlightAware ADS-B
Thu 12:50:27 AM 48.2950 137.1800 341° North 506 582 32,000  Level FlightAware ADS-B
Thu 12:51:17 AM 48.4010 137.1260 341° North 506 582 32,000  Level FlightAware ADS-B
Thu 12:52:02 AM 48.5000 137.0740 341° North 504 580 32,000  Level FlightAware ADS-B
Thu 12:52:42 AM 48.5900 137.0270 341° North 505 581 32,000  Level FlightAware ADS-B
Thu 12:53:27 AM 48.6870 136.9770 341° North 502 578 32,000  Level FlightAware ADS-B
Thu 12:54:02 AM 48.7610 136.9380 341° North 501 577 32,000  Level FlightAware ADS-B
Thu 12:55:02 AM 48.8940 136.8670 341° North 503 579 32,000  Level FlightAware ADS-B
Thu 12:55:47 AM 48.9920 136.8140 340° North 502 578 32,000  Level FlightAware ADS-B
Thu 12:56:27 AM 49.0810 136.7670 341° North 504 580 32,000  Level FlightAware ADS-B
Thu 12:57:02 AM 49.1760 136.7150 340° North 504 580 32,000  Level FlightAware ADS-B
Thu 12:58:07 AM 49.2970 136.6490 340° North 503 579 32,000  Level FlightAware ADS-B
Thu 12:58:47 AM 49.3830 136.6010 340° North 502 578 32,000  Level FlightAware ADS-B
Thu 12:59:42 AM 49.5010 136.5170 335° Northwest 506 582 32,000  Level FlightAware ADS-B
Thu 01:00:27 AM 49.5880 136.4400 330° Northwest 507 583 32,000  Level FlightAware ADS-B
Thu 01:00:57 AM 49.6500 136.3830 329° Northwest 508 585 32,000  Level FlightAware ADS-B
Thu 01:02:12 AM 49.7990 136.2380 328° Northwest 509 586 32,000  Level FlightAware ADS-B
Thu 01:02:52 AM 49.8710 136.1690 328° Northwest 510 587 32,000  Level FlightAware ADS-B
Thu 01:03:37 AM 49.9730 136.0700 328° Northwest 511 588 32,000  Level FlightAware ADS-B
Thu 01:04:17 AM 50.0530 135.9930 328° Northwest 510 587 32,000  Level FlightAware ADS-B
Thu 01:05:02 AM 50.1430 135.9050 328° Northwest 509 586 32,000  Level FlightAware ADS-B
Thu 01:05:37 AM 50.2140 135.8360 328° Northwest 510 587 32,000  Level FlightAware ADS-B
Thu 01:06:27 AM 50.3130 135.7380 328° Northwest 508 585 32,000  Level FlightAware ADS-B
Thu 01:07:12 AM 50.4030 135.6490 328° Northwest 508 585 32,000  Level FlightAware ADS-B
Thu 01:07:52 AM 50.4820 135.5710 328° Northwest 508 585 32,000  Level FlightAware ADS-B
Thu 01:08:32 AM 50.5620 135.4910 328° Northwest 508 585 32,000  Level FlightAware ADS-B
Thu 01:09:17 AM 50.6450 135.4080 328° Northwest 508 585 32,000  Level FlightAware ADS-B
Thu 01:09:52 AM 50.7180 135.3350 328° Northwest 508 585 32,000  Level FlightAware ADS-B
Thu 01:10:42 AM 50.8140 135.2380 327° Northwest 509 586 32,000  Level FlightAware ADS-B
Thu 01:11:22 AM 50.8920 135.1590 327° Northwest 509 586 32,000  Level FlightAware ADS-B
Thu 01:11:57 AM 50.9640 135.0890 329° Northwest 509 586 32,000  Level FlightAware ADS-B
Thu 01:12:42 AM 51.0820 134.9720 328° Northwest 508 585 32,000  Level FlightAware ADS-B
Thu 01:13:42 AM 51.1970 134.8570 328° Northwest 505 581 32,000  Level FlightAware ADS-B
Thu 01:14:22 AM 51.2780 134.7760 328° Northwest 503 579 32,000  Level FlightAware ADS-B
Thu 01:15:02 AM 51.3520 134.7020 328° Northwest 501 577 32,000  Level FlightAware ADS-B
Thu 01:15:47 AM 51.4040 134.6500 328° Northwest 502 578 32,000  Level FlightAware ADS-B
Thu 01:16:32 AM 51.5170 134.5360 328° Northwest 499 574 32,000  Level FlightAware ADS-B
Thu 01:17:02 AM 51.5940 134.4590 328° Northwest 499 574 32,000  Level FlightAware ADS-B
Thu 01:17:52 AM 51.6830 134.3680 328° Northwest 499 574 32,000  Level FlightAware ADS-B
Thu 01:18:37 AM 51.7400 134.3110 328° Northwest 501 577 32,000  Level FlightAware ADS-B
Thu 01:19:17 AM 51.8120 134.2360 327° Northwest 501 577 32,000  Level FlightAware ADS-B
Thu 01:19:57 AM 51.8780 134.1660 327° Northwest 501 577 32,000  Level FlightAware ADS-B
Thu 01:20:37 AM 51.9440 134.0970 327° Northwest 501 577 32,000  Level FlightAware ADS-B
Thu 01:21:17 AM 52.0100 134.0270 327° Northwest 501 577 32,000  Level FlightAware ADS-B
Thu 01:22:07 AM 52.0930 133.9400 327° Northwest 501 577 32,000  Level FlightAware ADS-B
Thu 01:22:47 AM 52.1590 133.8700 327° Northwest 501 577 32,000  Level FlightAware ADS-B
Thu 01:23:27 AM 52.2250 133.8000 327° Northwest 501 577 32,000  Level FlightAware ADS-B
Thu 01:24:07 AM 52.2910 133.7300 327° Northwest 501 577 32,000  Level FlightAware ADS-B
Thu 01:24:47 AM 52.3570 133.6590 327° Northwest 501 577 32,000  Level FlightAware ADS-B
Thu 01:25:37 AM 52.4400 133.5710 327° Northwest 501 577 32,000  Level FlightAware ADS-B
Thu 01:26:17 AM 52.5060 133.5010 327° Northwest 501 577 32,000  Level FlightAware ADS-B
Thu 01:26:57 AM 52.5720 133.4300 327° Northwest 501 577 32,000  Level FlightAware ADS-B
Thu 01:27:37 AM 52.6380 133.3600 327° Northwest 501 577 32,000  Level FlightAware ADS-B
Thu 01:28:17 AM 52.7040 133.2890 327° Northwest 501 577 32,000  Level FlightAware ADS-B
Thu 01:30:00 AM 52.8843 133.1027 328° Northwest  Level Estimated
Thu 01:31:00 AM 52.9893 132.9935 328° Northwest  Level Estimated
Thu 01:32:00 AM 53.0941 132.8837 328° Northwest  Level Estimated
Thu 01:33:00 AM 53.1988 132.7734 328° Northwest  Level Estimated
Thu 01:34:00 AM 53.3034 132.6626 328° Northwest  Level Estimated
Thu 01:35:00 AM 53.4079 132.5512 328° Northwest  Level Estimated
Thu 01:36:00 AM 53.5123 132.4392 327° Northwest  Level Estimated
Thu 01:37:00 AM 53.6166 132.3267 327° Northwest  Level Estimated
Thu 01:38:00 AM 53.7208 132.2137 327° Northwest  Level Estimated
Thu 01:39:00 AM 53.8249 132.1001 327° Northwest  Level Estimated
Thu 01:40:00 AM 53.9289 131.9859 327° Northwest  Level Estimated
Thu 01:41:00 AM 54.0328 131.8712 327° Northwest  Level Estimated
Thu 01:42:00 AM 54.1365 131.7558 327° Northwest  Level Estimated
Thu 01:43:00 AM 54.2402 131.6400 327° Northwest  Level Estimated
Thu 01:44:00 AM 54.3437 131.5235 327° Northwest  Level Estimated
Thu 01:45:00 AM 54.4472 131.4064 327° Northwest  Level Estimated
Thu 01:46:00 AM 54.5505 131.2887 327° Northwest  Level Estimated
Thu 01:47:00 AM 54.6537 131.1705 326° Northwest  Level Estimated
Thu 01:48:00 AM 54.7567 131.0516 326° Northwest  Level Estimated
Thu 01:48:37 AM 55.0630 130.1470 326° Northwest 481 554 32,000  Level FlightAware ADS-B
Thu 01:49:22 AM 55.1330 130.0410 319° Northwest 481 554 32,000  Level FlightAware ADS-B
Thu 01:50:02 AM 55.1900 129.9540 319° Northwest 481 554 32,000  Level FlightAware ADS-B
Thu 01:50:42 AM 55.2470 129.8670 319° Northwest 481 554 32,000  Level FlightAware ADS-B
Thu 01:51:32 AM 55.3560 129.7110 321° Northwest 479 551 32,000  Level FlightAware ADS-B
Thu 01:52:02 AM 55.4100 129.6310 320° Northwest 478 550 32,000  Level FlightAware ADS-B
Thu 01:52:57 AM 55.4990 129.4960 319° Northwest 478 550 32,000  Level FlightAware ADS-B
Thu 01:53:37 AM 55.5690 129.3910 320° Northwest 476 548 32,000  Level FlightAware ADS-B
Thu 01:54:17 AM 55.6340 129.2920 319° Northwest 473 544 32,000  Level FlightAware ADS-B
Thu 01:55:02 AM 55.7090 129.1770 319° Northwest 470 541 32,000  Level FlightAware ADS-B
Thu 01:55:37 AM 55.7660 129.0900 319° Northwest 470 541 32,000  Level FlightAware ADS-B
Thu 01:56:22 AM 55.8400 128.9770 319° Northwest 468 539 32,000  Level FlightAware ADS-B
Thu 01:57:02 AM 55.9080 128.8720 319° Northwest 468 539 32,000  Level FlightAware ADS-B
Thu 01:57:47 AM 55.9760 128.7650 319° Northwest 469 540 32,000  Level FlightAware ADS-B
Thu 01:58:32 AM 56.0410 128.6610 318° Northwest 469 540 32,000  Level FlightAware ADS-B
Thu 01:59:12 AM 56.0960 128.5730 318° Northwest 469 540 32,000  Level FlightAware ADS-B
Thu 01:59:52 AM 56.1500 128.4840 317° Northwest 469 540 32,000  Level FlightAware ADS-B
Thu 02:00:32 AM 56.2050 128.3960 318° Northwest 469 540 32,000  Level FlightAware ADS-B
Thu 02:01:12 AM 56.2600 128.3070 318° Northwest 469 540 32,000  Level FlightAware ADS-B
Thu 02:02:02 AM 56.3290 128.1950 318° Northwest 469 540 32,000  Level FlightAware ADS-B
Thu 02:02:42 AM 56.3830 128.1060 318° Northwest 469 540 32,000  Level FlightAware ADS-B
Thu 02:03:22 AM 56.4380 128.0170 318° Northwest 469 540 32,000  Level FlightAware ADS-B
Thu 02:04:02 AM 56.4930 127.9280 318° Northwest 469 540 32,000  Level FlightAware ADS-B
Thu 02:04:42 AM 56.5480 127.8380 318° Northwest 469 540 32,000  Level FlightAware ADS-B
Thu 02:05:22 AM 56.6030 127.7490 318° Northwest 469 540 32,000  Level FlightAware ADS-B
Thu 02:06:12 AM 56.6710 127.6360 318° Northwest 469 540 32,000  Level FlightAware ADS-B
Thu 02:06:52 AM 56.7260 127.5460 318° Northwest 469 540 32,000  Level FlightAware ADS-B
Thu 02:07:32 AM 56.7810 127.4560 318° Northwest 469 540 32,000 13 Level FlightAware ADS-B
Thu 02:10:00 AM 57.0262 127.1223 324° Northwest  Level Estimated
Thu 02:11:00 AM 57.1254 126.9857 323° Northwest  Level Estimated
Thu 02:12:00 AM 57.2244 126.8484 323° Northwest  Level Estimated
Thu 02:13:00 AM 57.3233 126.7104 323° Northwest  Level Estimated
Thu 02:14:00 AM 57.4220 126.5716 323° Northwest  Level Estimated
Thu 02:15:00 AM 57.5205 126.4321 323° Northwest  Level Estimated
Thu 02:16:00 AM 57.6189 126.2918 323° Northwest  Level Estimated
Thu 02:17:00 AM 57.7172 126.1508 323° Northwest  Level Estimated
Thu 02:18:00 AM 57.8153 126.0090 322° Northwest  Level Estimated
Thu 02:19:00 AM 57.9132 125.8664 322° Northwest  Level Estimated
Thu 02:20:00 AM 58.0110 125.7230 322° Northwest  Level Estimated
Thu 02:21:00 AM 58.1086 125.5789 322° Northwest  Level Estimated
Thu 02:22:00 AM 58.2060 125.4340 322° Northwest  Level Estimated
Thu 02:23:00 AM 58.3033 125.2882 322° Northwest  Level Estimated
Thu 02:24:00 AM 58.4004 125.1417 322° Northwest  Level Estimated
Thu 02:25:00 AM 58.4974 124.9944 322° Northwest  Level Estimated
Thu 02:26:00 AM 58.5942 124.8462 321° Northwest  Level Estimated
Thu 02:27:00 AM 58.6908 124.6972 321° Northwest  Level Estimated
Thu 02:28:00 AM 58.7872 124.5474 321° Northwest  Level Estimated
Thu 02:29:00 AM 58.8834 124.3968 321° Northwest  Level Estimated
Thu 02:30:00 AM 58.9795 124.2453 321° Northwest  Level Estimated
Thu 02:31:00 AM 59.0754 124.0930 321° Northwest  Level Estimated
Thu 02:32:00 AM 59.1711 123.9398 321° Northwest  Level Estimated
Thu 02:33:00 AM 59.2665 123.7860 321° Northwest  Level Estimated
Thu 02:34:00 AM 59.3618 123.6313 320° Northwest  Level Estimated
Thu 02:35:00 AM 59.4568 123.4758 320° Northwest  Level Estimated
Thu 02:36:00 AM 59.5517 123.3193 320° Northwest  Level Estimated
Thu 02:37:00 AM 59.6463 123.1620 320° Northwest  Level Estimated
Thu 02:38:00 AM 59.7408 123.0038 320° Northwest  Level Estimated
Thu 02:39:00 AM 59.8351 122.8447 320° Northwest  Level Estimated
Thu 02:40:00 AM 59.9292 122.6847 320° Northwest  Level Estimated
Thu 02:41:00 AM 60.0231 122.5238 319° Northwest  Level Estimated
Thu 02:42:00 AM 60.1168 122.3620 319° Northwest  Level Estimated
Thu 02:43:00 AM 60.2103 122.1992 319° Northwest  Level Estimated
Thu 02:44:00 AM 60.3036 122.0356 319° Northwest  Level Estimated
Thu 02:45:00 AM 60.3967 121.8710 319° Northwest  Level Estimated
Thu 02:46:00 AM 60.4896 121.7054 319° Northwest  Level Estimated
Thu 02:47:00 AM 60.5823 121.5389 319° Northwest  Level Estimated
Thu 02:48:00 AM 60.6748 121.3715 318° Northwest  Level Estimated
Thu 02:49:00 AM 60.7670 121.2030 318° Northwest  Level Estimated
Thu 02:50:00 AM 60.8591 121.0336 318° Northwest  Level Estimated
Thu 02:51:00 AM 60.9509 120.8633 318° Northwest  Level Estimated
Thu 02:52:00 AM 61.0426 120.6919 318° Northwest  Level Estimated
Thu 02:53:00 AM 61.1340 120.5195 318° Northwest  Level Estimated
Thu 02:54:00 AM 61.2252 120.3462 318° Northwest  Level Estimated
Thu 02:55:00 AM 61.3161 120.1718 317° Northwest  Level Estimated
Thu 02:56:00 AM 61.4069 119.9965 317° Northwest  Level Estimated
Thu 02:57:00 AM 61.4974 119.8201 317° Northwest  Level Estimated
Thu 02:58:00 AM 61.5877 119.6427 317° Northwest  Level Estimated
Thu 02:59:00 AM 61.6777 119.4642 317° Northwest  Level Estimated
Thu 03:00:00 AM 61.7676 119.2847 317° Northwest  Level Estimated
Thu 03:01:00 AM 61.8572 119.1041 316° Northwest  Level Estimated
Thu 03:02:00 AM 61.9466 118.9223 316° Northwest  Level Estimated
Thu 03:03:00 AM 62.0359 118.7394 316° Northwest  Level Estimated
Thu 03:04:00 AM 62.1249 118.5554 316° Northwest  Level Estimated
Thu 03:05:00 AM 62.2136 118.3703 316° Northwest  Level Estimated
Thu 03:06:00 AM 62.3021 118.1841 316° Northwest  Level Estimated
Thu 03:07:00 AM 62.3903 117.9968 316° Northwest  Level Estimated
Thu 03:08:00 AM 62.4783 117.8084 315° West  Level Estimated
Thu 03:09:00 AM 62.5661 117.6189 315° West  Level Estimated
Thu 03:10:00 AM 62.6535 117.4283 315° West  Level Estimated
Thu 03:11:00 AM 62.7408 117.2366 315° West  Level Estimated
Thu 03:12:00 AM 62.8277 117.0437 315° West  Level Estimated
Thu 03:13:00 AM 62.9144 116.8497 315° West  Level Estimated
Thu 03:14:00 AM 63.0008 116.6545 314° West  Level Estimated
Thu 03:15:00 AM 63.0870 116.4582 314° West  Level Estimated
Thu 03:16:00 AM 63.1729 116.2607 314° West  Level Estimated
Thu 03:17:00 AM 63.2585 116.0621 314° West  Level Estimated
Thu 03:18:00 AM 63.3438 115.8622 314° West  Level Estimated
Thu 03:19:00 AM 63.4288 115.6612 313° West  Level Estimated
Thu 03:20:00 AM 63.5136 115.4590 313° West  Level Estimated
Thu 03:21:00 AM 63.5981 115.2556 313° West  Level Estimated
Thu 03:22:00 AM 63.6823 115.0509 313° West  Level Estimated
Thu 03:23:00 AM 63.7662 114.8451 313° West  Level Estimated
Thu 03:24:00 AM 63.8498 114.6380 313° West  Level Estimated
Thu 03:25:00 AM 63.9331 114.4297 312° West  Level Estimated
Thu 03:26:00 AM 64.0161 114.2202 312° West  Level Estimated
Thu 03:27:00 AM 64.0988 114.0094 312° West  Level Estimated
Thu 03:28:00 AM 64.1812 113.7973 312° West  Level Estimated
Thu 03:29:00 AM 64.2632 113.5840 312° West  Level Estimated
Thu 03:30:00 AM 64.3450 113.3694 311° West  Level Estimated
Thu 03:31:00 AM 64.4265 113.1536 311° West  Level Estimated
Thu 03:32:00 AM 64.5076 112.9364 311° West  Level Estimated
Thu 03:33:00 AM 64.5884 112.7180 311° West  Level Estimated
Thu 03:34:00 AM 64.6689 112.4983 311° West  Level Estimated
Thu 03:35:00 AM 64.7490 112.2772 310° West  Level Estimated
Thu 03:36:00 AM 64.8289 112.0549 310° West  Level Estimated
Thu 03:37:00 AM 64.9084 111.8312 310° West  Level Estimated
Thu 03:38:00 AM 64.9875 111.6062 310° West  Level Estimated
Thu 03:39:00 AM 65.0663 111.3799 310° West  Level Estimated
Thu 03:40:00 AM 65.1448 111.1522 309° West  Level Estimated
Thu 03:41:00 AM 65.2229 110.9232 309° West  Level Estimated
Thu 03:42:00 AM 65.3007 110.6928 309° West  Level Estimated
Thu 03:43:00 AM 65.3781 110.4611 309° West  Level Estimated
Thu 03:44:00 AM 65.4552 110.2280 309° West  Level Estimated
Thu 03:45:00 AM 65.5319 109.9935 308° West  Level Estimated
Thu 03:46:00 AM 65.6082 109.7577 308° West  Level Estimated
Thu 03:47:00 AM 65.6842 109.5204 308° West  Level Estimated
Thu 03:48:00 AM 65.7598 109.2818 308° West  Level Estimated
Thu 03:49:00 AM 65.8350 109.0418 308° West  Level Estimated
Thu 03:50:00 AM 65.9099 108.8004 307° West  Level Estimated
Thu 03:51:00 AM 65.9844 108.5575 307° West  Level Estimated
Thu 03:52:00 AM 66.0584 108.3132 307° West  Level Estimated
Thu 03:53:00 AM 66.1321 108.0676 307° West  Level Estimated
Thu 03:54:00 AM 66.2054 107.8204 306° West  Level Estimated
Thu 03:55:00 AM 66.2784 107.5719 306° West  Level Estimated
Thu 03:56:00 AM 66.3509 107.3219 306° West  Level Estimated
Thu 03:57:00 AM 66.4230 107.0705 306° West  Level Estimated
Thu 03:58:00 AM 66.4948 106.8172 305° West  Level Estimated
Thu 03:59:00 AM 66.5661 106.5625 305° West  Level Estimated
Thu 04:00:00 AM 66.6371 106.3064 305° West  Level Estimated
Thu 04:01:00 AM 66.7077 106.0487 305° West  Level Estimated
Thu 04:02:00 AM 66.7778 105.7896 305° West  Level Estimated
Thu 04:03:00 AM 66.8475 105.5290 304° West  Level Estimated
Thu 04:04:00 AM 66.9168 105.2670 304° West  Level Estimated
Thu 04:05:00 AM 66.9856 105.0034 304° West  Level Estimated
Thu 04:06:00 AM 67.0540 104.7383 304° West  Level Estimated
Thu 04:07:00 AM 67.1220 104.4718 303° West  Level Estimated
Thu 04:08:00 AM 67.1895 104.2038 303° West  Level Estimated
Thu 04:09:00 AM 67.2566 103.9339 303° West  Level Estimated
Thu 04:10:00 AM 67.3233 103.6624 303° West  Level Estimated
Thu 04:11:00 AM 67.3896 103.3895 302° West  Level Estimated
Thu 04:12:00 AM 67.4553 103.1150 302° West  Level Estimated
Thu 04:13:00 AM 67.5207 102.8390 302° West  Level Estimated
Thu 04:14:00 AM 67.5855 102.5615 302° West  Level Estimated
Thu 04:15:00 AM 67.6498 102.2825 301° West  Level Estimated
Thu 04:16:00 AM 67.7137 102.0020 301° West  Level Estimated
Thu 04:17:00 AM 67.7771 101.7199 301° West  Level Estimated
Thu 04:18:00 AM 67.8400 101.4363 301° West  Level Estimated
Thu 04:19:00 AM 67.9024 101.1512 300° West  Level Estimated
Thu 04:20:00 AM 67.9643 100.8646 300° West  Level Estimated
Thu 04:21:00 AM 68.0257 100.5764 300° West  Level Estimated
Thu 04:22:00 AM 68.0866 100.2867 299° West  Level Estimated
Thu 04:23:00 AM 68.1471 99.9951 299° West  Level Estimated
Thu 04:24:00 AM 68.2071 99.7019 299° West  Level Estimated
Thu 04:25:00 AM 68.2665 99.4072 299° West  Level Estimated
Thu 04:26:00 AM 68.3255 99.1109 298° West  Level Estimated
Thu 04:27:00 AM 68.3839 98.8132 298° West  Level Estimated
Thu 04:28:00 AM 68.4417 98.5139 298° West  Level Estimated
Thu 04:29:00 AM 68.4990 98.2130 298° West  Level Estimated
Thu 04:30:00 AM 68.5558 97.9107 297° West  Level Estimated
Thu 04:31:00 AM 68.6121 97.6068 297° West  Level Estimated
Thu 04:32:00 AM 68.6677 97.3014 297° West  Level Estimated
Thu 04:33:00 AM 68.7228 96.9949 296° West  Level Estimated
Thu 04:34:00 AM 68.7773 96.6870 296° West  Level Estimated
Thu 04:35:00 AM 68.8312 96.3775 296° West  Level Estimated
Thu 04:36:00 AM 68.8846 96.0665 296° West  Level Estimated
Thu 04:37:00 AM 68.9374 95.7540 295° West  Level Estimated
Thu 04:38:00 AM 68.9896 95.4400 295° West  Level Estimated
Thu 04:39:00 AM 69.0413 95.1246 295° West  Level Estimated
Thu 04:40:00 AM 69.0923 94.8076 294° West  Level Estimated
Thu 04:41:00 AM 69.1428 94.4892 294° West  Level Estimated
Thu 04:42:00 AM 69.1927 94.1693 294° West  Level Estimated
Thu 04:43:00 AM 69.2420 93.8480 294° West  Level Estimated
Thu 04:44:00 AM 69.2907 93.5252 293° West  Level Estimated
Thu 04:45:00 AM 69.3388 93.2010 293° West  Level Estimated
Thu 04:46:00 AM 69.3863 92.8753 293° West  Level Estimated
Thu 04:47:00 AM 69.4331 92.5482 292° West  Level Estimated
Thu 04:48:00 AM 69.4794 92.2197 292° West  Level Estimated
Thu 04:49:00 AM 69.5250 91.8897 292° West  Level Estimated
Thu 04:50:00 AM 69.5700 91.5584 291° West  Level Estimated
Thu 04:51:00 AM 69.6144 91.2257 291° West  Level Estimated
Thu 04:52:00 AM 69.6581 90.8916 291° West  Level Estimated
Thu 04:53:00 AM 69.7012 90.5561 290° West  Level Estimated
Thu 04:54:00 AM 69.7437 90.2193 290° West  Level Estimated
Thu 04:55:00 AM 69.7855 89.8811 290° West  Level Estimated
Thu 04:56:00 AM 69.8267 89.5416 290° West  Level Estimated
Thu 04:57:00 AM 69.8672 89.2008 289° West  Level Estimated
Thu 04:58:00 AM 69.9070 88.8586 289° West  Level Estimated
Thu 04:59:00 AM 69.9462 88.5152 289° West  Level Estimated
Thu 05:00:00 AM 69.9847 88.1705 288° West  Level Estimated
Thu 05:01:00 AM 70.0226 87.8245 288° West  Level Estimated
Thu 05:02:00 AM 70.0598 87.4773 288° West  Level Estimated
Thu 05:03:00 AM 70.0963 87.1288 287° West  Level Estimated
Thu 05:04:00 AM 70.1321 86.7792 287° West  Level Estimated
Thu 05:05:00 AM 70.1673 86.4283 287° West  Level Estimated
Thu 05:06:00 AM 70.2017 86.0762 286° West  Level Estimated
Thu 05:07:00 AM 70.2355 85.7230 286° West  Level Estimated
Thu 05:08:00 AM 70.2685 85.3687 286° West  Level Estimated
Thu 05:09:00 AM 70.3009 85.0132 285° West  Level Estimated
Thu 05:10:00 AM 70.3326 84.6565 285° West  Level Estimated
Thu 05:11:00 AM 70.3635 84.2988 285° West  Level Estimated
Thu 05:12:00 AM 70.3938 83.9401 284° West  Level Estimated
Thu 05:13:00 AM 70.4233 83.5802 284° West  Level Estimated
Thu 05:14:00 AM 70.4521 83.2194 284° West  Level Estimated
Thu 05:15:00 AM 70.4802 82.8575 283° West  Level Estimated
Thu 05:16:00 AM 70.5076 82.4947 283° West  Level Estimated
Thu 05:17:00 AM 70.5343 82.1308 283° West  Level Estimated
Thu 05:18:00 AM 70.5602 81.7661 282° West  Level Estimated
Thu 05:19:00 AM 70.5854 81.4004 282° West  Level Estimated
Thu 05:20:00 AM 70.6099 81.0338 282° West  Level Estimated
Thu 05:21:00 AM 70.6336 80.6663 281° West  Level Estimated
Thu 05:22:00 AM 70.6566 80.2979 281° West  Level Estimated
Thu 05:23:00 AM 70.6788 79.9288 280° West  Level Estimated
Thu 05:24:00 AM 70.7003 79.5588 280° West  Level Estimated
Thu 05:25:00 AM 70.7211 79.1881 280° West  Level Estimated
Thu 05:26:00 AM 70.7411 78.8166 279° West  Level Estimated
Thu 05:27:00 AM 70.7604 78.4444 279° West  Level Estimated
Thu 05:28:00 AM 70.7789 78.0714 279° West  Level Estimated
Thu 05:29:00 AM 70.7966 77.6978 278° West  Level Estimated
Thu 05:30:00 AM 70.8136 77.3235 278° West  Level Estimated
Thu 05:31:00 AM 70.8298 76.9487 278° West  Level Estimated
Thu 05:32:00 AM 70.8453 76.5732 277° West  Level Estimated
Thu 05:33:00 AM 70.8600 76.1971 277° West  Level Estimated
Thu 05:34:00 AM 70.8739 75.8205 277° West  Level Estimated
Thu 05:35:00 AM 70.8871 75.4434 276° West  Level Estimated
Thu 05:36:00 AM 70.8995 75.0658 276° West  Level Estimated
Thu 05:37:00 AM 70.9111 74.6878 276° West  Level Estimated
Thu 05:38:00 AM 70.9220 74.3093 275° West  Level Estimated
Thu 05:39:00 AM 70.9321 73.9304 275° West  Level Estimated
Thu 05:40:00 AM 70.9414 73.5512 274° West  Level Estimated
Thu 05:41:00 AM 70.9499 73.1721 274° West  Level Estimated
Thu 05:42:00 AM 70.9577 72.7928 274° West  Level Estimated
Thu 05:43:00 AM 70.9647 72.4131 273° West  Level Estimated
Thu 05:44:00 AM 70.9708 72.0332 273° West  Level Estimated
Thu 05:45:00 AM 70.9763 71.6531 273° West  Level Estimated
Thu 05:46:00 AM 70.9809 71.2728 272° West  Level Estimated
Thu 05:47:00 AM 70.9848 70.8923 272° West  Level Estimated
Thu 05:48:00 AM 70.9879 70.5117 272° West  Level Estimated
Thu 05:49:00 AM 70.9902 70.1310 271° West  Level Estimated
Thu 05:50:00 AM 70.9917 69.7502 271° West  Level Estimated
Thu 05:51:00 AM 70.9925 69.3693 271° West  Level Estimated
Thu 05:52:00 AM 70.9924 68.9885 270° West  Level Estimated
Thu 05:53:00 AM 70.9916 68.6077 270° West  Level Estimated
Thu 05:54:00 AM 70.9900 68.2269 269° West  Level Estimated
Thu 05:55:00 AM 70.9877 67.8462 269° West  Level Estimated
Thu 05:56:00 AM 70.9845 67.4655 269° West  Level Estimated
Thu 05:57:00 AM 70.9806 67.0851 268° West  Level Estimated
Thu 05:58:00 AM 70.9759 66.7048 268° West  Level Estimated
Thu 05:59:00 AM 70.9704 66.3247 268° West  Level Estimated
Thu 06:00:00 AM 70.9641 65.9448 267° West  Level Estimated
Thu 06:01:00 AM 70.9571 65.5651 267° West  Level Estimated
Thu 06:02:00 AM 70.9493 65.1858 267° West  Level Estimated
Thu 06:03:00 AM 70.9407 64.8068 266° West  Level Estimated
Thu 06:04:00 AM 70.9314 64.4281 266° West  Level Estimated
Thu 06:05:00 AM 70.9212 64.0498 265° West  Level Estimated
Thu 06:06:00 AM 70.9103 63.6719 265° West  Level Estimated
Thu 06:07:00 AM 70.8987 63.2944 265° West  Level Estimated
Thu 06:08:00 AM 70.8862 62.9174 264° West  Level Estimated
Thu 06:09:00 AM 70.8730 62.5408 264° West  Level Estimated
Thu 06:10:00 AM 70.8590 62.1648 264° West  Level Estimated
Thu 06:11:00 AM 70.8443 61.7893 263° West  Level Estimated
Thu 06:12:00 AM 70.8288 61.4144 263° West  Level Estimated
Thu 06:13:00 AM 70.8126 61.0401 263° West  Level Estimated
Thu 06:14:00 AM 70.7956 60.6664 262° West  Level Estimated
Thu 06:15:00 AM 70.7778 60.2934 262° West  Level Estimated
Thu 06:16:00 AM 70.7593 59.9210 262° West  Level Estimated
Thu 06:17:00 AM 70.7400 59.5494 261° West  Level Estimated
Thu 06:18:00 AM 70.7200 59.1784 261° West  Level Estimated
Thu 06:19:00 AM 70.6992 58.8083 261° West  Level Estimated
Thu 06:20:00 AM 70.6777 58.4389 260° West  Level Estimated
Thu 06:21:00 AM 70.6554 58.0703 260° West  Level Estimated
Thu 06:22:00 AM 70.6325 57.7025 259° West  Level Estimated
Thu 06:23:00 AM 70.6087 57.3356 259° West  Level Estimated
Thu 06:24:00 AM 70.5843 56.9696 259° West  Level Estimated
Thu 06:25:00 AM 70.5591 56.6044 258° West  Level Estimated
Thu 06:26:00 AM 70.5331 56.2402 258° West  Level Estimated
Thu 06:27:00 AM 70.5065 55.8769 258° West  Level Estimated
Thu 06:28:00 AM 70.4791 55.5146 257° West  Level Estimated
Thu 06:29:00 AM 70.4510 55.1533 257° West  Level Estimated
Thu 06:30:00 AM 70.4222 54.7930 257° West  Level Estimated
Thu 06:31:00 AM 70.3927 54.4337 256° West  Level Estimated
Thu 06:32:00 AM 70.3625 54.0755 256° West  Level Estimated
Thu 06:33:00 AM 70.3315 53.7183 256° West  Level Estimated
Thu 06:34:00 AM 70.2999 53.3628 255° West  Level Estimated
Thu 06:35:00 AM 70.2676 53.0083 255° West  Level Estimated
Thu 06:36:00 AM 70.2346 52.6550 255° West  Level Estimated
Thu 06:37:00 AM 70.2010 52.3028 254° West  Level Estimated
Thu 06:38:00 AM 70.1666 51.9518 254° West  Level Estimated
Thu 06:39:00 AM 70.1315 51.6019 254° West  Level Estimated
Thu 06:40:00 AM 70.0958 51.2533 253° West  Level Estimated
Thu 06:41:00 AM 70.0594 50.9058 253° West  Level Estimated
Thu 06:42:00 AM 70.0223 50.5596 253° West  Level Estimated
Thu 06:43:00 AM 69.9846 50.2146 252° West  Level Estimated
Thu 06:44:00 AM 69.9461 49.8709 252° West  Level Estimated
Thu 06:45:00 AM 69.9071 49.5285 252° West  Level Estimated
Thu 06:46:00 AM 69.8673 49.1873 251° West  Level Estimated
Thu 06:47:00 AM 69.8269 48.8474 251° West  Level Estimated
Thu 06:48:00 AM 69.7859 48.5089 251° West  Level Estimated
Thu 06:49:00 AM 69.7442 48.1716 250° West  Level Estimated
Thu 06:50:00 AM 69.7019 47.8357 250° West  Level Estimated
Thu 06:51:00 AM 69.6589 47.5012 250° West  Level Estimated
Thu 06:52:00 AM 69.6153 47.1680 250° West  Level Estimated
Thu 06:53:00 AM 69.5711 46.8362 249° West  Level Estimated
Thu 06:54:00 AM 69.5262 46.5058 249° West  Level Estimated
Thu 06:55:00 AM 69.4807 46.1767 249° West  Level Estimated
Thu 06:56:00 AM 69.4346 45.8491 248° West  Level Estimated
Thu 06:57:00 AM 69.3879 45.5229 248° West  Level Estimated
Thu 06:58:00 AM 69.3406 45.1981 248° West  Level Estimated
Thu 06:59:00 AM 69.2927 44.8747 247° West  Level Estimated
Thu 07:00:00 AM 69.2441 44.5528 247° West  Level Estimated
Thu 07:01:00 AM 69.1950 44.2323 247° West  Level Estimated
Thu 07:02:00 AM 69.1453 43.9132 246° West  Level Estimated
Thu 07:03:00 AM 69.0950 43.5957 246° West  Level Estimated
Thu 07:04:00 AM 69.0441 43.2795 246° West  Level Estimated
Thu 07:05:00 AM 68.9926 42.9649 246° West  Level Estimated
Thu 07:05:52 AM 67.1880 40.2940 245° Southwest 473 544 36,000  Level FlightAware ADS-B
Thu 07:06:00 AM 68.9406 42.6517 245° Southwest  Level Estimated
Thu 07:06:42 AM 67.1510 40.0730 247° West 473 544 36,000  Level FlightAware ADS-B
Thu 07:07:22 AM 67.1220 39.8970 247° West 473 544 36,000  Level FlightAware ADS-B
Thu 07:08:02 AM 67.0930 39.7210 247° West 473 544 36,000  Level FlightAware ADS-B
Thu 07:08:42 AM 67.0640 39.5450 247° West 473 544 36,000  Level FlightAware ADS-B
Thu 07:09:22 AM 67.0350 39.3690 247° West 473 544 36,000  Level FlightAware ADS-B
Thu 07:10:12 AM 66.9980 39.1500 247° West 473 544 36,000  Level FlightAware ADS-B
Thu 07:10:52 AM 66.9690 38.9750 247° West 473 544 36,000  Level FlightAware ADS-B
Thu 07:11:32 AM 66.9400 38.8000 247° West 473 544 36,000  Level FlightAware ADS-B
Thu 07:12:12 AM 66.9110 38.6250 247° West 473 544 36,000  Level FlightAware ADS-B
Thu 07:12:52 AM 66.8820 38.4510 247° West 473 544 36,000  Level FlightAware ADS-B
Thu 07:13:42 AM 66.8460 38.2330 247° West 473 544 36,000  Level FlightAware ADS-B
Thu 07:14:22 AM 66.8170 38.0590 247° West 473 544 36,000  Level FlightAware ADS-B
Thu 07:16:00 AM 66.7245 37.6019 243° Southwest  Level Estimated
Thu 07:17:00 AM 66.6673 37.3238 243° Southwest  Level Estimated
Thu 07:18:00 AM 66.6095 37.0470 242° Southwest  Level Estimated
Thu 07:19:00 AM 66.5513 36.7714 242° Southwest  Level Estimated
Thu 07:20:00 AM 66.4926 36.4971 242° Southwest  Level Estimated
Thu 07:21:00 AM 66.4334 36.2242 242° Southwest  Level Estimated
Thu 07:22:00 AM 66.3737 35.9525 241° Southwest  Level Estimated
Thu 07:23:00 AM 66.3136 35.6821 241° Southwest  Level Estimated
Thu 07:24:00 AM 66.2530 35.4131 241° Southwest  Level Estimated
Thu 07:25:00 AM 66.1919 35.1453 241° Southwest  Level Estimated
Thu 07:26:00 AM 66.1304 34.8788 240° Southwest  Level Estimated
Thu 07:27:00 AM 66.0684 34.6136 240° Southwest  Level Estimated
Thu 07:28:00 AM 66.0060 34.3497 240° Southwest  Level Estimated
Thu 07:29:00 AM 65.9431 34.0871 240° Southwest  Level Estimated
Thu 07:30:00 AM 65.8798 33.8258 239° Southwest  Level Estimated
Thu 07:31:00 AM 65.8160 33.5658 239° Southwest  Level Estimated
Thu 07:32:00 AM 65.7518 33.3070 239° Southwest  Level Estimated
Thu 07:33:00 AM 65.6871 33.0496 239° Southwest  Level Estimated
Thu 07:34:00 AM 65.6220 32.7934 238° Southwest  Level Estimated
Thu 07:35:00 AM 65.5565 32.5386 238° Southwest  Level Estimated
Thu 07:36:00 AM 65.4906 32.2850 238° Southwest  Level Estimated
Thu 07:37:00 AM 65.4242 32.0327 238° Southwest  Level Estimated
Thu 07:38:00 AM 65.3575 31.7816 238° Southwest  Level Estimated
Thu 07:38:52 AM 65.2840 30.9640 238° Southwest 455 524 36,000  Level FlightAware ADS-B
Thu 07:39:32 AM 65.2410 30.7930 239° Southwest 453 521 36,000  Level FlightAware ADS-B
Thu 07:40:12 AM 65.1960 30.6200 238° Southwest 453 521 36,000  Level FlightAware ADS-B
Thu 07:40:57 AM 65.1500 30.4380 239° Southwest 452 520 36,000  Level FlightAware ADS-B
Thu 07:42:07 AM 65.0690 30.1280 238° Southwest 454 522 36,000  Level FlightAware ADS-B
Thu 07:42:47 AM 65.0300 29.9790 238° Southwest 455 524 36,000  Level FlightAware ADS-B
Thu 07:43:27 AM 64.9840 29.8070 238° Southwest 453 521 36,000  Level FlightAware ADS-B
Thu 07:44:12 AM 64.9320 29.6200 237° Southwest 453 521 36,000  Level FlightAware ADS-B
Thu 07:44:52 AM 64.8750 29.4660 229° Southwest 455 524 36,000  Level FlightAware ADS-B
Thu 07:45:37 AM 64.8100 29.3020 227° Southwest 455 524 36,000  Level FlightAware ADS-B
Thu 07:46:17 AM 64.7510 29.1540 227° Southwest 455 524 36,000  Level FlightAware ADS-B
Thu 07:47:02 AM 64.6880 28.9950 227° Southwest 452 520 36,000  Level FlightAware ADS-B
Thu 07:47:42 AM 64.6310 28.8530 227° Southwest 452 520 36,000  Level FlightAware ADS-B
Thu 07:48:22 AM 64.5730 28.7110 226° Southwest 453 521 36,000  Level FlightAware ADS-B
Thu 07:49:07 AM 64.5090 28.5540 227° Southwest 453 521 36,000  Level FlightAware ADS-B
Thu 07:49:52 AM 64.4430 28.3920 227° Southwest 453 521 36,000  Level FlightAware ADS-B
Thu 07:50:32 AM 64.3860 28.2530 227° Southwest 450 518 36,000  Level FlightAware ADS-B
Thu 07:51:17 AM 64.3240 28.1040 226° Southwest 449 517 36,000  Level FlightAware ADS-B
Thu 07:51:57 AM 64.2660 27.9670 226° Southwest 448 516 36,000  Level FlightAware ADS-B
Thu 07:52:37 AM 64.2070 27.8270 226° Southwest 449 517 36,000  Level FlightAware ADS-B
Thu 07:53:22 AM 64.1430 27.6750 226° Southwest 449 517 36,000  Level FlightAware ADS-B
Thu 07:54:02 AM 64.0840 27.5390 225° Southwest 449 517 36,000  Level FlightAware ADS-B
Thu 07:54:47 AM 64.0240 27.4000 225° Southwest 449 517 36,000  Level FlightAware ADS-B
Thu 07:55:17 AM 63.9760 27.2880 226° Southwest 449 517 36,000  Level FlightAware ADS-B
Thu 07:56:07 AM 63.9040 27.1220 225° Southwest 444 511 36,000  Level FlightAware ADS-B
Thu 07:56:52 AM 63.8380 26.9730 225° Southwest 442 509 36,000  Level FlightAware ADS-B
Thu 07:57:32 AM 63.7810 26.8420 225° Southwest 443 510 36,000  Level FlightAware ADS-B
Thu 07:58:12 AM 63.7210 26.7080 225° Southwest 444 511 36,000  Level FlightAware ADS-B
Thu 07:58:57 AM 63.6550 26.5610 225° Southwest 449 517 36,000  Level FlightAware ADS-B
Thu 07:59:37 AM 63.5980 26.4340 225° Southwest 441 507 36,000  Level FlightAware ADS-B
Thu 08:00:17 AM 63.5380 26.3000 225° Southwest 446 513 36,000  Level FlightAware ADS-B
Thu 08:01:02 AM 63.4720 26.1550 224° Southwest 439 505 36,000  Level FlightAware ADS-B
Thu 08:01:42 AM 63.4130 26.0280 224° Southwest 444 511 36,000  Level FlightAware ADS-B
Thu 08:02:27 AM 63.3470 25.8850 224° Southwest 444 511 36,000  Level FlightAware ADS-B
Thu 08:03:07 AM 63.2880 25.7570 224° Southwest 445 512 36,000  Level FlightAware ADS-B
Thu 08:03:47 AM 63.2290 25.6320 224° Southwest 446 513 36,000  Level FlightAware ADS-B
Thu 08:04:27 AM 63.1690 25.5050 224° Southwest 447 514 36,000  Level FlightAware ADS-B
Thu 08:05:12 AM 63.1030 25.3650 224° Southwest 447 514 36,000  Level FlightAware ADS-B
Thu 08:05:52 AM 63.0420 25.2380 223° Southwest 445 512 36,000  Level FlightAware ADS-B
Thu 08:06:32 AM 62.9830 25.1140 224° Southwest 444 511 36,000  Level FlightAware ADS-B
Thu 08:07:17 AM 62.9180 24.9800 223° Southwest 445 512 36,000  Level FlightAware ADS-B
Thu 08:07:57 AM 62.8570 24.8540 223° Southwest 442 509 36,000  Level FlightAware ADS-B
Thu 08:08:37 AM 62.8000 24.7370 223° Southwest 441 507 36,000  Level FlightAware ADS-B
Thu 08:09:22 AM 62.7300 24.5950 223° Southwest 440 506 36,000  Level FlightAware ADS-B
Thu 08:10:02 AM 62.6720 24.4760 223° Southwest 440 506 36,000  Level FlightAware ADS-B
Thu 08:10:47 AM 62.6040 24.3390 223° Southwest 438 504 36,000  Level FlightAware ADS-B
Thu 08:11:27 AM 62.5460 24.2240 222° Southwest 438 504 36,000  Level FlightAware ADS-B
Thu 08:12:12 AM 62.4800 24.0920 223° Southwest 440 506 36,000  Level FlightAware ADS-B
Thu 08:12:52 AM 62.4230 23.9800 222° Southwest 441 507 36,000  Level FlightAware ADS-B
Thu 08:13:32 AM 62.3570 23.8510 222° Southwest 436 502 36,000  Level FlightAware ADS-B
Thu 08:14:17 AM 62.2890 23.7180 222° Southwest 435 501 36,000  Level FlightAware ADS-B
Thu 08:14:57 AM 62.2330 23.6100 222° Southwest 435 501 36,000  Level FlightAware ADS-B
Thu 08:15:42 AM 62.1610 23.4700 222° Southwest 436 502 36,000  Level FlightAware ADS-B
Thu 08:16:22 AM 62.1040 23.3600 222° Southwest 436 502 36,000  Level FlightAware ADS-B
Thu 08:17:02 AM 62.0410 23.2400 222° Southwest 438 504 36,000  Level FlightAware ADS-B
Thu 08:17:47 AM 61.9710 23.1070 222° Southwest 436 502 36,000  Level FlightAware ADS-B
Thu 08:18:27 AM 61.9080 22.9890 221° Southwest 436 502 36,000  Level FlightAware ADS-B
Thu 08:19:07 AM 61.8490 22.8780 222° Southwest 436 502 36,000  Level FlightAware ADS-B
Thu 08:19:52 AM 61.7780 22.7470 221° Southwest 437 503 36,000  Level FlightAware ADS-B
Thu 08:20:32 AM 61.7170 22.6340 221° Southwest 437 503 36,000  Level FlightAware ADS-B
Thu 08:21:17 AM 61.6470 22.5060 221° Southwest 444 511 36,000  Level FlightAware ADS-B
Thu 08:21:57 AM 61.5850 22.3920 221° Southwest 444 511 36,000  Level FlightAware ADS-B
Thu 08:22:37 AM 61.5240 22.2810 221° Southwest 445 512 36,000  Level FlightAware ADS-B
Thu 08:23:22 AM 61.4550 22.1550 221° Southwest 445 512 36,000  Level FlightAware ADS-B
Thu 08:24:02 AM 61.3930 22.0450 220° Southwest 443 510 36,000  Level FlightAware ADS-B
Thu 08:24:47 AM 61.3260 21.9240 221° Southwest 441 507 36,000  Level FlightAware ADS-B
Thu 08:25:22 AM 61.2680 21.8220 220° Southwest 441 507 36,000  Level FlightAware ADS-B
Thu 08:26:12 AM 61.1930 21.6890 221° Southwest 439 505 36,000  Level FlightAware ADS-B
Thu 08:26:52 AM 61.1300 21.5780 220° Southwest 438 504 36,000  Level FlightAware ADS-B
Thu 08:27:32 AM 61.0690 21.4710 220° Southwest 439 505 36,000  Level FlightAware ADS-B
Thu 08:28:17 AM 61.0050 21.3590 220° Southwest 438 504 36,000  Level FlightAware ADS-B
Thu 08:28:52 AM 60.9450 21.2560 220° Southwest 437 503 36,000  Level FlightAware ADS-B
Thu 08:29:42 AM 60.8720 21.1160 223° Southwest 429 494 36,000  Level FlightAware ADS-B
Thu 08:30:22 AM 60.8170 21.0010 226° Southwest 423 487 36,000  Level FlightAware ADS-B
Thu 08:31:02 AM 60.7610 20.8880 225° Southwest 421 484 36,000  Level FlightAware ADS-B
Thu 08:31:47 AM 60.6990 20.7660 224° Southwest 420 483 36,000  Level FlightAware ADS-B
Thu 08:32:27 AM 60.6430 20.6560 224° Southwest 420 483 36,000  Level FlightAware ADS-B
Thu 08:33:07 AM 60.5870 20.5460 224° Southwest 420 483 36,000  Level FlightAware ADS-B
Thu 08:33:52 AM 60.5230 20.4220 224° Southwest 420 483 36,000  Level FlightAware ADS-B
Thu 08:34:32 AM 60.4660 20.3110 224° Southwest 422 486 36,000  Level FlightAware ADS-B
Thu 08:35:17 AM 60.4050 20.1950 223° Southwest 423 487 36,000  Level FlightAware ADS-B
Thu 08:35:57 AM 60.3480 20.0830 224° Southwest 424 488 36,000  Level FlightAware ADS-B
Thu 08:36:37 AM 60.2900 19.9740 223° Southwest 424 488 36,000  Level FlightAware ADS-B
Thu 08:37:22 AM 60.2250 19.8500 223° Southwest 423 487 36,000  Level FlightAware ADS-B
Thu 08:38:02 AM 60.1690 19.7440 223° Southwest 425 489 36,000  Level FlightAware ADS-B
Thu 08:38:47 AM 60.1060 19.6250 223° Southwest 428 493 36,000  Level FlightAware ADS-B
Thu 08:39:27 AM 60.0470 19.5150 223° Southwest 428 493 36,000  Level FlightAware ADS-B
Thu 08:40:07 AM 59.9910 19.4060 224° Southwest 425 489 36,000  Level FlightAware ADS-B
Thu 08:40:52 AM 59.9400 19.2600 235° Southwest 423 487 36,000  Level FlightAware ADS-B
Thu 08:41:32 AM 59.8990 19.1290 238° Southwest 422 486 36,000  Level FlightAware ADS-B
Thu 08:42:17 AM 59.8540 18.9830 239° Southwest 424 488 36,000  Level FlightAware ADS-B
Thu 08:42:57 AM 59.8040 18.8630 230° Southwest 427 491 36,000  Level FlightAware ADS-B
Thu 08:43:37 AM 59.7510 18.7460 228° Southwest 426 490 36,000  Level FlightAware ADS-B
Thu 08:44:22 AM 59.6910 18.6140 228° Southwest 424 488 36,000  Level FlightAware ADS-B
Thu 08:45:07 AM 59.6330 18.4880 228° Southwest 424 488 36,000  Level FlightAware ADS-B
Thu 08:45:47 AM 59.5800 18.3720 228° Southwest 426 490 36,000  Level FlightAware ADS-B
Thu 08:46:27 AM 59.5270 18.2570 228° Southwest 424 488 36,000  Level FlightAware ADS-B
Thu 08:47:12 AM 59.4670 18.1270 228° Southwest 424 488 36,000  Level FlightAware ADS-B
Thu 08:47:52 AM 59.4160 18.0180 227° Southwest 428 493 36,000  Level FlightAware ADS-B
Thu 08:48:37 AM 59.3540 17.8870 227° Southwest 430 495 36,000  Level FlightAware ADS-B
Thu 08:49:17 AM 59.2990 17.7710 227° Southwest 431 496 36,000  Level FlightAware ADS-B
Thu 08:49:57 AM 59.2450 17.6570 227° Southwest 432 497 36,000  Level FlightAware ADS-B
Thu 08:50:42 AM 59.1850 17.5310 227° Southwest 428 493 36,000  Level FlightAware ADS-B
Thu 08:51:22 AM 59.1310 17.4180 227° Southwest 425 489 36,000  Level FlightAware ADS-B
Thu 08:52:02 AM 59.0790 17.3100 227° Southwest 423 487 36,000  Level FlightAware ADS-B
Thu 08:52:37 AM 59.0310 17.2100 227° Southwest 423 487 36,000  Level FlightAware ADS-B
Thu 08:53:17 AM 58.9770 17.1000 226° Southwest 423 487 36,000  Level FlightAware ADS-B
Thu 08:53:57 AM 58.9230 16.9880 227° Southwest 423 487 36,000  Level FlightAware ADS-B
Thu 08:54:42 AM 58.8640 16.8690 226° Southwest 422 486 36,000  Level FlightAware ADS-B
Thu 08:55:22 AM 58.8110 16.7610 227° Southwest 422 486 36,000  Level FlightAware ADS-B
Thu 08:56:02 AM 58.7570 16.6520 226° Southwest 420 483 36,000  Level FlightAware ADS-B
Thu 08:56:47 AM 58.6950 16.5270 226° Southwest 420 483 36,000  Level FlightAware ADS-B
Thu 08:57:27 AM 58.6410 16.4190 226° Southwest 419 482 36,000  Level FlightAware ADS-B
Thu 08:58:12 AM 58.5830 16.3050 226° Southwest 415 478 36,000  Level FlightAware ADS-B
Thu 08:58:52 AM 58.5300 16.2000 226° Southwest 413 475 36,000  Level FlightAware ADS-B
Thu 08:59:27 AM 58.4820 16.1050 226° Southwest 413 475 36,000  Level FlightAware ADS-B
Thu 09:00:17 AM 58.4150 15.9730 226° Southwest 412 474 36,000  Level FlightAware ADS-B
Thu 09:00:57 AM 58.3620 15.8700 226° Southwest 408 470 36,000  Level FlightAware ADS-B
Thu 09:01:42 AM 58.3050 15.7590 226° Southwest 408 470 36,000  Level FlightAware ADS-B
Thu 09:02:22 AM 58.2520 15.6560 226° Southwest 407 468 36,000  Level FlightAware ADS-B
Thu 09:03:02 AM 58.1980 15.5530 225° Southwest 408 470 36,000  Level FlightAware ADS-B
Thu 09:03:42 AM 58.1460 15.4540 225° Southwest 410 472 36,000  Level FlightAware ADS-B
Thu 09:04:27 AM 58.0840 15.3360 225° Southwest 410 472 36,000  Level FlightAware ADS-B
Thu 09:05:07 AM 58.0320 15.2370 225° Southwest 408 470 36,000  Level FlightAware ADS-B
Thu 09:05:52 AM 57.9710 15.1220 225° Southwest 409 471 36,000  Level FlightAware ADS-B
Thu 09:06:32 AM 57.9190 15.0250 225° Southwest 408 470 36,000  Level FlightAware ADS-B
Thu 09:07:17 AM 57.8580 14.9100 225° Southwest 408 470 36,000  Level FlightAware ADS-B
Thu 09:07:52 AM 57.8120 14.8260 224° Southwest 408 470 36,000  Level FlightAware ADS-B
Thu 09:08:37 AM 57.7500 14.7110 225° Southwest 406 467 36,000  Level FlightAware ADS-B
Thu 09:09:22 AM 57.6920 14.6040 225° Southwest 405 466 36,000  Level FlightAware ADS-B
Thu 09:10:02 AM 57.6390 14.5070 224° Southwest 404 465 36,000  Level FlightAware ADS-B
Thu 09:10:47 AM 57.5780 14.3950 225° Southwest 407 468 36,000  Level FlightAware ADS-B
Thu 09:11:27 AM 57.5240 14.2970 224° Southwest 410 472 36,000  Level FlightAware ADS-B
Thu 09:12:12 AM 57.4630 14.1870 224° Southwest 415 478 36,000  Level FlightAware ADS-B
Thu 09:12:52 AM 57.4060 14.0850 224° Southwest 417 480 36,000  Level FlightAware ADS-B
Thu 09:13:32 AM 57.3530 13.9890 224° Southwest 413 475 36,000  Level FlightAware ADS-B
Thu 09:14:17 AM 57.2910 13.8780 224° Southwest 412 474 36,000  Level FlightAware ADS-B
Thu 09:14:57 AM 57.2360 13.7810 224° Southwest 411 473 36,000  Level FlightAware ADS-B
Thu 09:15:37 AM 57.1800 13.6820 224° Southwest 412 474 36,000  Level FlightAware ADS-B
Thu 09:16:22 AM 57.1200 13.5760 224° Southwest 413 475 36,000  Level FlightAware ADS-B
Thu 09:17:02 AM 57.0670 13.4830 224° Southwest 414 476 36,000 75 Level FlightAware ADS-B
Thu 09:17:42 AM 57.0100 13.3830 224° Southwest 413 475 36,100 282 Climbing FlightAware ADS-B
Thu 09:18:27 AM 56.9460 13.2730 223° Southwest 415 478 36,400 400 Climbing FlightAware ADS-B
Thu 09:19:12 AM 56.8850 13.1670 224° Southwest 422 486 36,700 424 Climbing FlightAware ADS-B
Thu 09:19:52 AM 56.8260 13.0660 223° Southwest 422 486 37,000 375 Climbing FlightAware ADS-B
Thu 09:20:32 AM 56.7690 12.9680 223° Southwest 417 480 37,200 300 Climbing FlightAware ADS-B
Thu 09:21:12 AM 56.7150 12.8770 223° Southwest 417 480 37,400 282 Climbing FlightAware ADS-B
Thu 09:21:57 AM 56.6510 12.7670 223° Southwest 418 481 37,600 282 Climbing FlightAware ADS-B
Thu 09:22:37 AM 56.5940 12.6710 223° Southwest 425 489 37,800 282 Climbing FlightAware ADS-B
Thu 09:23:22 AM 56.5280 12.5580 223° Southwest 430 495 38,000 141 Climbing FlightAware ADS-B
Thu 09:24:02 AM 56.4730 12.4580 225° Southwest 425 489 38,000  Level FlightAware ADS-B
Thu 09:24:47 AM 56.4140 12.3400 228° Southwest 426 490 38,000  Level FlightAware ADS-B
Thu 09:25:27 AM 56.3610 12.2360 227° Southwest 422 486 38,000  Level FlightAware ADS-B
Thu 09:26:07 AM 56.3100 12.1330 228° Southwest 421 484 38,000  Level FlightAware ADS-B
Thu 09:26:52 AM 56.2500 12.0170 227° Southwest 422 486 38,000  Level FlightAware ADS-B
Thu 09:27:32 AM 56.1980 11.9150 228° Southwest 423 487 38,000  Level FlightAware ADS-B
Thu 09:28:17 AM 56.1370 11.7970 227° Southwest 426 490 38,000  Level FlightAware ADS-B
Thu 09:28:57 AM 56.0830 11.6940 227° Southwest 427 491 38,000  Level FlightAware ADS-B
Thu 09:29:42 AM 56.0240 11.5800 227° Southwest 426 490 38,000  Level FlightAware ADS-B
Thu 09:30:22 AM 55.9710 11.4780 227° Southwest 425 489 38,000  Level FlightAware ADS-B
Thu 09:31:07 AM 55.9080 11.3610 226° Southwest 424 488 38,000  Level FlightAware ADS-B
Thu 09:31:47 AM 55.8560 11.2610 227° Southwest 424 488 38,000  Level FlightAware ADS-B
Thu 09:32:27 AM 55.8010 11.1580 226° Southwest 425 489 38,000  Level FlightAware ADS-B
Thu 09:33:12 AM 55.7420 11.0460 227° Southwest 425 489 38,000  Level FlightAware ADS-B
Thu 09:33:52 AM 55.6860 10.9420 226° Southwest 421 484 38,000  Level FlightAware ADS-B
Thu 09:34:32 AM 55.6340 10.8460 226° Southwest 422 486 38,000  Level FlightAware ADS-B
Thu 09:35:17 AM 55.5730 10.7330 226° Southwest 422 486 38,000  Level FlightAware ADS-B
Thu 09:35:52 AM 55.5280 10.6510 226° Southwest 425 489 38,000  Level FlightAware ADS-B
Thu 09:36:42 AM 55.4580 10.5230 226° Southwest 419 482 38,000  Level FlightAware ADS-B
Thu 09:37:22 AM 55.4030 10.4220 226° Southwest 420 483 38,000  Level FlightAware ADS-B
Thu 09:38:02 AM 55.3490 10.3230 226° Southwest 423 487 38,000  Level FlightAware ADS-B
Thu 09:38:47 AM 55.2850 10.2090 225° Southwest 426 490 38,000  Level FlightAware ADS-B
Thu 09:39:27 AM 55.2320 10.1130 226° Southwest 425 489 38,000  Level FlightAware ADS-B
Thu 09:40:02 AM 55.1820 10.0240 225° Southwest 423 487 38,000  Level FlightAware ADS-B
Thu 09:40:52 AM 55.1130 9.9000 226° Southwest 425 489 38,000  Level FlightAware ADS-B
Thu 09:41:32 AM 55.0570 9.8020 225° Southwest 425 489 38,000  Level FlightAware ADS-B
Thu 09:42:17 AM 54.9940 9.6900 226° Southwest 432 497 38,000  Level FlightAware ADS-B
Thu 09:42:57 AM 54.9380 9.5910 225° Southwest 433 498 38,000  Level FlightAware ADS-B
Thu 09:43:37 AM 54.8820 9.4920 226° Southwest 432 497 38,000  Level FlightAware ADS-B
Thu 09:44:22 AM 54.8180 9.3820 225° Southwest 433 498 38,000  Level FlightAware ADS-B
Thu 09:45:17 AM 54.7430 9.2510 225° Southwest 434 499 38,000  Level FlightAware ADS-B
Thu 09:46:02 AM 54.6760 9.1360 225° Southwest 437 503 38,000  Level FlightAware ADS-B
Thu 09:46:42 AM 54.6180 9.0390 224° Southwest 437 503 38,000  Level FlightAware ADS-B
Thu 09:47:37 AM 54.5370 8.9100 223° Southwest 438 504 38,000  Level FlightAware ADS-B
Thu 09:48:17 AM 54.4780 8.8150 223° Southwest 438 504 38,000  Level FlightAware ADS-B
Thu 09:49:02 AM 54.4130 8.7120 223° Southwest 439 505 38,000  Level FlightAware ADS-B
Thu 09:49:37 AM 54.3590 8.6250 223° Southwest 440 506 38,000  Level FlightAware ADS-B
Thu 09:50:27 AM 54.2850 8.5080 223° Southwest 441 507 38,000  Level FlightAware ADS-B
Thu 09:51:07 AM 54.2250 8.4140 223° Southwest 442 509 38,000  Level FlightAware ADS-B
Thu 09:51:52 AM 54.1560 8.3060 223° Southwest 442 509 38,000  Level FlightAware ADS-B
Thu 09:52:32 AM 54.0950 8.2100 223° Southwest 444 511 38,000  Level FlightAware ADS-B
Thu 09:53:12 AM 54.0350 8.1160 223° Southwest 443 510 38,000  Level FlightAware ADS-B
Thu 09:53:57 AM 53.9690 8.0140 222° Southwest 443 510 38,000  Level FlightAware ADS-B
Thu 09:54:37 AM 53.9070 7.9190 222° Southwest 440 506 38,000  Level FlightAware ADS-B
Thu 09:55:22 AM 53.8400 7.8170 222° Southwest 438 504 38,000  Level FlightAware ADS-B
Thu 09:56:02 AM 53.7800 7.7250 222° Southwest 439 505 38,000  Level FlightAware ADS-B
Thu 09:56:42 AM 53.7190 7.6320 222° Southwest 439 505 38,000  Level FlightAware ADS-B
Thu 09:57:27 AM 53.6550 7.5340 222° Southwest 441 507 38,000  Level FlightAware ADS-B
Thu 09:58:07 AM 53.5910 7.4390 221° Southwest 443 510 38,000  Level FlightAware ADS-B
Thu 09:58:52 AM 53.5210 7.3330 222° Southwest 443 510 38,000  Level FlightAware ADS-B
Thu 09:59:32 AM 53.4610 7.2430 222° Southwest 442 509 38,000  Level FlightAware ADS-B
Thu 10:00:17 AM 53.3990 7.1510 222° Southwest 441 507 38,000  Level FlightAware ADS-B
Thu 10:00:57 AM 53.3350 7.0560 222° Southwest 439 505 38,000 -1,333 Level FlightAware ADS-B
Thu 10:01:29 AM 53.2800 6.9751 222° Southwest 1 1 36,400  Descending FlightAware UK
Thu 10:01:37 AM 53.2750 6.9670 222° Southwest 439 505 38,000 143 Climbing FlightAware ADS-B
Thu 10:02:11 AM 53.2156 6.8811 222° Southwest 1 1 36,500  Descending FlightAware UK
Thu 10:02:22 AM 53.2050 6.8650 222° Southwest 441 507 38,000  Climbing FlightAware ADS-B
Thu 10:02:41 AM 53.1706 6.8137 222° Southwest 1 1 36,500 -2,595 Descending FlightAware UK
Thu 10:02:59 AM 53.1430 6.7734 221° Southwest 1 1 36,400 4,286 Descending FlightAware UK
Thu 10:03:02 AM 53.1420 6.7720 221° Southwest 440 506 38,000 250 Climbing FlightAware ADS-B
Thu 10:03:23 AM 53.1064 6.7199 221° Southwest 1 1 36,500 -2,308 Descending FlightAware UK
Thu 10:03:41 AM 53.0787 6.6797 221° Southwest 1 1 36,500 3,750 Level FlightAware UK
Thu 10:03:47 AM 53.0760 6.6760 221° Southwest 442 509 38,000  Climbing FlightAware ADS-B
Thu 10:04:05 AM 53.0422 6.6261 221° Southwest 1 1 36,500 -2,500 Descending FlightAware UK
Thu 10:04:23 AM 53.0137 6.5862 220° Southwest 1 1 36,500  Level FlightAware UK
Thu 10:04:41 AM 52.9862 6.5458 222° Southwest 1 1 36,500  Level FlightAware UK
Thu 10:05:05 AM 52.9499 6.4920 222° Southwest 1 1 36,500  Level FlightAware UK
Thu 10:05:23 AM 52.9223 6.4518 221° Southwest 1 1 36,500 3,333 Level FlightAware UK
Thu 10:05:32 AM 52.9130 6.4400 221° Southwest 446 513 38,000  Climbing FlightAware ADS-B
Thu 10:05:47 AM 52.8851 6.3982 221° Southwest 1 1 36,500  Descending FlightAware UK
Thu 10:06:07 AM 52.8580 6.3600 221° Southwest 447 514 38,000 1,500 Climbing FlightAware ADS-B
Thu 10:06:47 AM 52.7970 6.2740 220° Southwest 445 512 38,000  Level FlightAware ADS-B
Thu 10:07:32 AM 52.7240 6.1690 221° Southwest 446 513 38,000  Level FlightAware ADS-B
Thu 10:08:17 AM 52.6600 6.0780 221° Southwest 446 513 38,000  Level FlightAware ADS-B
Thu 10:08:57 AM 52.5940 5.9850 221° Southwest 446 513 38,000  Level FlightAware ADS-B
Thu 10:09:37 AM 52.5300 5.8940 221° Southwest 446 513 38,000  Level FlightAware ADS-B
Thu 10:10:22 AM 52.4580 5.7940 220° Southwest 446 513 38,000 -1,184 Level FlightAware ADS-B
Thu 10:10:53 AM 52.4041 5.7211 220° Southwest 482 555 36,500  Descending FlightAware UK
Thu 10:11:02 AM 52.3950 5.7050 220° Southwest 446 513 38,000 -143 Climbing FlightAware ADS-B
Thu 10:11:35 AM 52.3359 5.6273 220° Southwest 482 555 36,400  Descending FlightAware UK
Thu 10:11:42 AM 52.3320 5.6170 220° Southwest 447 514 38,000 250 Climbing FlightAware ADS-B
Thu 10:11:59 AM 52.3006 5.5762 220° Southwest 484 557 36,500  Descending FlightAware UK
Thu 10:12:27 AM 52.2630 5.5220 220° Southwest 448 516 38,000 -125 Climbing FlightAware ADS-B
Thu 10:12:47 AM 52.2271 5.4731 220° Southwest 482 555 36,400  Descending FlightAware UK
Thu 10:13:07 AM 52.1940 5.4420 220° Southwest 448 516 38,000 1,477 Climbing FlightAware ADS-B
Thu 10:13:52 AM 52.1100 5.3800 204° Southwest 450 518 38,000  Level FlightAware ADS-B
Thu 10:14:32 AM 52.0330 5.3280 203° Southwest 449 517 38,000  Level FlightAware ADS-B
Thu 10:15:12 AM 51.9590 5.2790 202° Southwest 449 517 38,000  Level FlightAware ADS-B
Thu 10:15:57 AM 51.8700 5.2190 203° Southwest 447 514 38,000 -1,385 Level FlightAware ADS-B
Thu 10:16:17 AM 51.8240 5.1882 203° Southwest 484 557 36,500  Descending FlightAware UK
Thu 10:16:37 AM 51.7920 5.1660 203° Southwest 446 513 38,000 1,385 Climbing FlightAware ADS-B
Thu 10:17:22 AM 51.7090 5.1110 202° Southwest 446 513 38,000  Level FlightAware ADS-B
Thu 10:18:02 AM 51.6300 5.0580 203° Southwest 445 512 38,000  Level FlightAware ADS-B
Thu 10:18:42 AM 51.5580 5.0110 202° Southwest 447 514 38,000  Level FlightAware ADS-B
Thu 10:19:27 AM 51.4710 4.9530 203° Southwest 446 513 38,000  Level FlightAware ADS-B
Thu 10:20:07 AM 51.3950 4.9030 202° Southwest 445 512 38,000 -1,452 Level FlightAware ADS-B
Thu 10:20:29 AM 51.3471 4.8722 202° Southwest 480 552 36,500  Descending FlightAware UK
Thu 10:20:52 AM 51.3070 4.8460 202° Southwest 444 511 38,000 1,429 Climbing FlightAware ADS-B
Thu 10:21:32 AM 51.2320 4.7970 202° Southwest 445 512 38,000  Level FlightAware ADS-B
Thu 10:22:12 AM 51.1550 4.7460 203° Southwest 444 511 38,000 -1,304 Level FlightAware ADS-B
Thu 10:22:41 AM 51.0963 4.7083 203° Southwest 480 552 36,500  Descending FlightAware UK
Thu 10:22:57 AM 51.0740 4.6940 203° Southwest 444 511 38,000 1,607 Climbing FlightAware ADS-B
Thu 10:23:37 AM 50.9950 4.6430 202° Southwest 442 509 38,000  Level FlightAware ADS-B
Thu 10:24:17 AM 50.9200 4.5950 202° Southwest 444 511 38,000 -1,500 Level FlightAware ADS-B
Thu 10:24:41 AM 50.8684 4.5618 202° Southwest 478 550 36,400 -2,286 Descending FlightAware UK
Thu 10:24:59 AM 50.8337 4.5389 203° Southwest 478 550 36,400 4,571 Level FlightAware UK
Thu 10:25:02 AM 50.8330 4.5390 203° Southwest 445 512 38,000 1,116 Climbing FlightAware ADS-B
Thu 10:25:42 AM 50.7560 4.4880 203° Southwest 446 513 37,200 -1,129 Descending FlightAware ADS-B
Thu 10:26:27 AM 50.6750 4.4330 203° Southwest 432 497 36,400 -1,765 Descending FlightAware ADS-B
Thu 10:27:07 AM 50.6030 4.3840 203° Southwest 432 497 34,700 -4,059 Descending FlightAware ADS-B
Thu 10:27:35 AM 50.5453 4.3465 203° Southwest 1 1 31,800 -2,550 Descending FlightAware UK
Thu 10:27:47 AM 50.5310 4.3360 203° Southwest 428 493 33,000 -2,375 Climbing FlightAware ADS-B
Thu 10:28:23 AM 50.4591 4.2902 203° Southwest 1 1 29,900 -2,267 Descending FlightAware UK
Thu 10:28:32 AM 50.4510 4.2830 203° Southwest 415 478 31,300 -2,000 Climbing FlightAware ADS-B
Thu 10:28:47 AM 50.4148 4.2577 203° Southwest 1 1 29,100 -6,364 Descending FlightAware UK
Thu 10:29:05 AM 50.3830 4.2364 203° Southwest 1 1 27,800 480 Descending FlightAware UK
Thu 10:29:12 AM 50.3840 4.2380 203° Southwest 419 482 29,300 -1,846 Climbing FlightAware ADS-B
Thu 10:29:57 AM 50.2970 4.1810 203° Southwest 439 505 26,200 -4,519 Descending FlightAware ADS-B
Thu 10:30:29 AM 50.2312 4.1380 203° Southwest 1 1 23,500 -1,800 Descending FlightAware UK
Thu 10:30:37 AM 50.2240 4.1330 203° Southwest 422 486 25,000 1,875 Climbing FlightAware ADS-B
Thu 10:31:17 AM 50.1510 4.0850 203° Southwest 416 479 25,000 -1,655 Level FlightAware ADS-B
Thu 10:31:35 AM 50.1125 4.0592 203° Southwest 1 1 23,400 -2,857 Descending FlightAware UK
Thu 10:31:59 AM 50.0693 4.0287 204° Southwest 1 1 23,000 2,222 Descending FlightAware UK
Thu 10:32:02 AM 50.0700 4.0320 204° Southwest 409 471 24,400 -3,000 Climbing FlightAware ADS-B
Thu 10:32:23 AM 50.0270 4.0007 204° Southwest 1 1 21,800 -5,077 Descending FlightAware UK
Thu 10:32:41 AM 49.9956 3.9798 203° Southwest 1 1 21,100 2,842 Descending FlightAware UK
Thu 10:32:42 AM 50.0010 3.9870 203° Southwest 404 465 22,700 -130 Climbing FlightAware ADS-B
Thu 10:33:27 AM 49.9250 3.9380 203° Southwest 393 452 21,000 -1,835 Descending FlightAware ADS-B
Thu 10:34:07 AM 49.8590 3.8950 203° Southwest 366 421 20,100 -1,412 Descending FlightAware ADS-B
Thu 10:34:52 AM 49.7950 3.8530 203° Southwest 354 407 19,000 -1,765 Descending FlightAware ADS-B
Thu 10:35:32 AM 49.7300 3.8110 203° Southwest 350 403 17,600 -1,412 Descending FlightAware ADS-B
Thu 10:36:17 AM 49.6720 3.7590 210° Southwest 325 374 17,000 -1,200 Descending FlightAware ADS-B
Thu 10:36:57 AM 49.6240 3.7030 217° Southwest 312 359 15,900 -1,425 Descending FlightAware ADS-B
Thu 10:37:37 AM 49.5750 3.6590 210° Southwest 300 345 15,100 -1,271 Descending FlightAware ADS-B
Thu 10:38:22 AM 49.5200 3.6110 210° Southwest 294 338 14,100 -1,286 Descending FlightAware ADS-B
Thu 10:38:33 AM 49.5060 3.5989 209° Southwest 292 336 13,900 -1,364 Descending FlightAware ADS-B
Thu 10:39:06 AM 49.4677 3.5654 210° Southwest 288 331 13,100 -1,406 Descending FlightAware ADS-B
Thu 10:39:37 AM 49.4313 3.5339 209° Southwest 287 330 12,400 -1,258 Descending FlightAware ADS-B
Thu 10:40:08 AM 49.3964 3.5038 209° Southwest 284 327 11,800 -885 Descending FlightAware ADS-B
Thu 10:40:38 AM 49.3623 3.4742 209° Southwest 286 329 11,500 -787 Descending FlightAware ADS-B
Thu 10:41:09 AM 49.3267 3.4431 210° Southwest 280 322 11,000 -1,322 Descending FlightAware ADS-B
Thu 10:41:37 AM 49.2946 3.4149 210° Southwest 282 325 10,200 -1,404 Descending FlightAware ADS-B
Thu 10:41:56 AM 49.2750 3.3949 214° Southwest 279 321 9,900 -1,200 Descending FlightAware ADS-B
Thu 10:42:12 AM 49.2580 3.3768 215° Southwest 277 319 9,500 -1,500 Descending FlightAware ADS-B
Thu 10:42:28 AM 49.2405 3.3585 214° Southwest 276 318 9,100 -1,455 Descending FlightAware ADS-B
Thu 10:42:45 AM 49.2230 3.3401 215° Southwest 276 318 8,700 -1,455 Descending FlightAware ADS-B
Thu 10:43:01 AM 49.2065 3.3226 215° Southwest 276 318 8,300 -2,049 Descending FlightAware ADS-B
Thu 10:43:26 AM 49.1801 3.2965 213° Southwest 272 313 7,300 -2,571 Descending FlightAware ADS-B
Thu 10:44:04 AM 49.1382 3.2613 209° Southwest 272 313 5,600 -2,197 Descending FlightAware ADS-B
Thu 10:44:37 AM 49.1090 3.2260 218° Southwest 270 311 4,700 -1,600 Descending FlightAware ADS-B
Thu 10:44:49 AM 49.0955 3.2064 224° Southwest 272 313 4,400 -1,333 Descending FlightAware ADS-B
Thu 10:45:04 AM 49.0817 3.1863 224° Southwest 269 310 4,100 -1,000 Descending FlightAware ADS-B
Thu 10:45:19 AM 49.0681 3.1665 224° Southwest 269 310 3,900 -400 Descending FlightAware ADS-B
Thu 10:45:34 AM 49.0553 3.1478 224° Southwest 269 310 3,900  Level FlightAware ADS-B
Thu 10:45:50 AM 49.0409 3.1272 223° Southwest 259 298 3,900  Level FlightAware ADS-B
Thu 10:45:59 AM 49.0333 3.1163 223° Southwest 251 289 3,900  Level FlightAware ADS-B
Thu 10:46:07 AM 49.0264 3.1063 223° Southwest 244 281 3,900  Level FlightAware ADS-B
Thu 10:46:11 AM 49.0232 3.1007 229° Southwest 241 277 3,900  Level FlightAware ADS-B
Thu 10:46:15 AM 49.0210 3.0952 239° Southwest 239 275 3,900  Level FlightAware ADS-B
Thu 10:46:18 AM 49.0198 3.0904 249° West 239 275 3,900  Level FlightAware ADS-B
Thu 10:46:23 AM 49.0186 3.0833 256° West 237 273 3,900  Level FlightAware ADS-B
Thu 10:46:30 AM 49.0179 3.0711 265° West 234 269 3,900  Level FlightAware ADS-B
Thu 10:46:47 AM 49.0173 3.0441 268° West 233 268 3,900  Level FlightAware ADS-B
Thu 10:47:02 AM 49.0162 3.0185 266° West 235 270 3,900  Level FlightAware ADS-B
Thu 10:47:18 AM 49.0149 2.9920 266° West 234 269 3,900  Level FlightAware ADS-B
Thu 10:47:34 AM 49.0137 2.9674 266° West 231 266 3,900  Level FlightAware ADS-B
Thu 10:47:49 AM 49.0124 2.9422 266° West 221 254 3,900  Level FlightAware ADS-B
Thu 10:48:05 AM 49.0113 2.9193 266° West 210 242 3,900  Level FlightAware ADS-B
Thu 10:48:14 AM 49.0106 2.9054 266° West 201 231 3,900  Level FlightAware ADS-B
Thu 10:48:30 AM 49.0095 2.8842 265° West 191 220 3,900 -581 Level FlightAware ADS-B
Thu 10:48:45 AM 49.0085 2.8637 266° West 193 222 3,600 -1,161 Descending FlightAware ADS-B
Thu 10:49:01 AM 49.0074 2.8421 266° West 192 221 3,300 -1,000 Descending FlightAware ADS-B
Thu 10:49:15 AM 49.0064 2.8244 265° West 192 221 3,100 -1,034 Descending FlightAware ADS-B
Thu 10:49:30 AM 49.0054 2.8031 266° West 190 219 2,800 -1,161 Descending FlightAware ADS-B
Thu 10:49:46 AM 49.0043 2.7828 265° West 192 221 2,500 -1,000 Descending FlightAware ADS-B
Thu 10:50:00 AM 49.0033 2.7632 266° West 193 222 2,300 -1,000 Descending FlightAware ADS-B
Thu 10:50:16 AM 49.0022 2.7419 266° West 186 214 2,000 -1,161 Descending FlightAware ADS-B
Thu 10:50:31 AM 49.0012 2.7232 265° West 177 204 1,700 -1,000 Descending FlightAware ADS-B
Thu 10:50:46 AM 49.0002 2.7047 265° West 171 197 1,500 -750 Descending FlightAware ADS-B
Thu 10:51:03 AM 48.9992 2.6849 266° West 168 193 1,300 -750 Descending FlightAware ADS-B
Thu 10:51:18 AM 48.9983 2.6675 265° West 160 184 1,100 -1,000 Descending FlightAware ADS-B
Thu 10:51:33 AM 48.9974 2.6510 265° West 151 174 800 -1,043 Descending FlightAware ADS-B
Thu 10:51:41 AM 48.9970 2.6435 265° West 147 169 700 -600 Descending FlightAware ADS-B
Thu 10:51:53 AM 48.9963 2.6305 265° West 149 171 600 -571 Descending FlightAware ADS-B
Thu 10:52:02 AM 48.9959 2.6216 266° West 153 176 500 -750 Descending FlightAware ADS-B
Thu 10:52:09 AM 48.9954 2.6136 265° West 152 175 400 -857 Descending FlightAware ADS-B

Login

Don't have an account? Register now (free) for customized features, flight alerts, and more!